• Join FlightAware (Why Join?)
  • Login
  • US Flag 
01:58PM EDT


 

Airport Tracker/Info


-or-


 

Live Flight TrackerFlight Track Log ✈ CTL62 ✈ 24-Apr-2013 ✈ KOSU - KPWK

Flight Track Log - Related Links

Times and Time Zones

All times are in EDT time to prevent confusion due to time zone crossing. See the CTL62 flight status page for this flight to view local times or setup timezone preferences in your user account.

Time Position Orientation Groundspeed Altitude Reporting Facility
EDT Latitude Longitude Course Direction KTS MPH feet Rate Location/Type
10:04PM 40.0761 -83.0903 273° West 113 130 1,100  Level Indianapolis Center
10:05PM 40.0775 -83.1314 273° West 130 150 1,900 660 Climbing Indianapolis Center
10:06PM 40.0975 -83.1744 301° West 154 177 2,300 360 Climbing Indianapolis Center
10:07PM 40.1175 -83.2197 300° West 143 165 2,700 720 Climbing Indianapolis Center
10:08PM 40.1389 -83.2644 302° West 145 167 3,800 1,260 Climbing Indianapolis Center
10:09PM 40.1422 -83.2844 282° West 81 93 5,300 960 Climbing Indianapolis Center
10:10PM 40.1603 -83.3181 305° West 96 110 5,800 420 Climbing Indianapolis Center
10:11PM 40.1814 -83.3561 306° West 116 133 6,200 120 Climbing Indianapolis Center
10:12PM 40.2044 -83.4083 300° West 147 169 6,100 -120 Descending Indianapolis Center
10:13PM 40.2242 -83.4494 302° West 145 167 6,000 -60 Descending Indianapolis Center
10:14PM 40.2450 -83.4967 300° West 148 170 6,000  Level Indianapolis Center
10:15PM 40.2658 -83.5442 300° West 149 171 6,100  Climbing Indianapolis Center
10:16PM 40.2869 -83.5919 300° West 150 173 6,100  Level Indianapolis Center
10:17PM 40.3072 -83.6403 299° West 150 173 6,100  Level Indianapolis Center
10:18PM 40.3281 -83.6886 299° West 151 174 6,100  Level Indianapolis Center
10:19PM 40.3494 -83.7361 301° West 151 174 6,100  Level Indianapolis Center
10:20PM 40.3753 -83.7917 301° West 151 174 6,100  Level Indianapolis Center
10:21PM 40.3978 -83.8386 302° West 151 174 6,100  Level Indianapolis Center
10:22PM 40.4211 -83.8872 302° West 153 176 6,100  Level Indianapolis Center
10:23PM 40.4428 -83.9369 300° West 155 178 6,100  Level Indianapolis Center
10:24PM 40.4608 -83.9864 296° West 152 175 6,100  Level Indianapolis Center
10:25PM 40.4844 -84.0350 303° West 155 178 6,100  Level Indianapolis Center
10:26PM 40.5053 -84.0825 300° West 152 175 6,200 -60 Climbing Indianapolis Center
10:27PM 40.5292 -84.1294 304° West 152 175 6,000 -120 Descending Indianapolis Center
10:28PM 40.5550 -84.1739 307° West 153 176 6,000  Level Indianapolis Center
10:29PM 40.5775 -84.2214 302° West 152 175 6,000  Level Indianapolis Center
10:30PM 40.5994 -84.2697 301° West 152 175 6,000  Level Indianapolis Center
10:31PM 40.6217 -84.3186 301° West 153 176 6,000  Level Indianapolis Center
10:32PM 40.6450 -84.3664 303° West 154 177 6,000  Level Indianapolis Center
10:33PM 40.6594 -84.3936 305° West 156 180 6,000  Level Chicago Center
10:34PM 40.6822 -84.4411 302° West 154 177 6,000  Level Chicago Center
10:35PM 40.7047 -84.4889 302° West 154 177 6,000  Level Chicago Center
10:36PM 40.7286 -84.5378 303° West 156 180 6,000  Level Chicago Center
10:37PM 40.7553 -84.5956 301° West 155 178 6,000  Level Chicago Center
10:38PM 40.7778 -84.6461 300° West 157 181 6,000  Level Chicago Center
10:39PM 40.7992 -84.6961 299° West 157 181 6,000  Level Chicago Center
10:40PM 40.8203 -84.7467 299° West 157 181 6,000  Level Chicago Center
10:41PM 40.8425 -84.7947 301° West 156 180 6,100  Climbing Chicago Center
10:42PM 40.8647 -84.8444 301° West 157 181 6,100 -60 Level Chicago Center
10:43PM 40.8881 -84.8933 302° West 157 181 6,000 -60 Descending Chicago Center
10:44PM 40.9108 -84.9425 302° West 157 181 6,000  Level Chicago Center
10:45PM 40.9336 -84.9911 302° West 156 180 6,000  Level Chicago Center
10:46PM 40.9556 -85.0403 301° West 156 180 6,000  Level Chicago Center
10:47PM 40.9817 -85.0997 300° West 156 180 6,000  Level Chicago Center
10:48PM 41.0036 -85.1494 300° West 156 180 6,100  Climbing Chicago Center
10:49PM 41.0253 -85.1994 300° West 156 180 6,000 -60 Descending Chicago Center
10:50PM 41.0458 -85.2489 299° West 155 178 6,000  Level Chicago Center
10:51PM 41.0675 -85.2994 300° West 156 180 6,000  Level Chicago Center
10:52PM 41.0881 -85.3497 298° West 156 180 6,100  Climbing Chicago Center
10:53PM 41.1100 -85.4014 299° West 157 181 6,000 -60 Descending Chicago Center
10:54PM 41.1336 -85.4514 302° West 159 183 6,000  Level Chicago Center
10:55PM 41.1544 -85.5044 298° West 160 184 6,100  Climbing Chicago Center
10:56PM 41.1761 -85.5572 299° West 161 185 6,000 -60 Descending Chicago Center
10:57PM 41.1986 -85.6092 300° West 162 186 6,000  Level Chicago Center
10:58PM 41.2247 -85.6711 299° West 161 185 6,100  Climbing Chicago Center
10:59PM 41.2456 -85.7233 298° West 160 184 6,000 -60 Descending Chicago Center
11:00PM 41.2678 -85.7761 299° West 161 185 6,000  Level Chicago Center
11:01PM 41.2906 -85.8272 301° West 161 185 6,000  Level Chicago Center
11:02PM 41.3144 -85.8764 303° West 160 184 6,000  Level Chicago Center
11:03PM 41.3358 -85.9300 298° West 161 185 6,100  Climbing Chicago Center
11:04PM 41.3564 -85.9831 297° West 161 185 6,000 -60 Descending Chicago Center
11:05PM 41.3800 -86.0344 301° West 162 186 6,000  Level Chicago Center
11:06PM 41.4003 -86.0889 296° West 164 189 6,000  Level Chicago Center
11:07PM 41.4219 -86.1414 299° West 163 188 6,000  Level Chicago Center
11:08PM 41.4431 -86.1925 299° West 160 184 6,000  Level Chicago Center
11:10PM 41.4694 -86.2550 299° West 160 184 6,000  Level Chicago Center
11:11PM 41.4922 -86.3069 300° West 161 185 6,000  Level Chicago Center
11:12PM 41.5133 -86.3592 298° West 160 184 6,000  Level Chicago Center
11:13PM 41.5361 -86.4111 300° West 163 188 6,000  Level Chicago Center
11:14PM 41.5569 -86.4633 298° West 161 185 6,000  Level Chicago Center
11:15PM 41.5781 -86.5161 298° West 161 185 6,000 -240 Level Chicago Center
11:16PM 41.5997 -86.5708 298° West 166 191 5,600 -420 Descending Chicago Center
11:17PM 41.6247 -86.6258 301° West 174 200 5,200 -420 Descending Chicago Center
11:18PM 41.6469 -86.6808 298° West 171 197 4,800 -420 Descending Chicago Center
11:19PM 41.6706 -86.7422 297° West 169 194 4,400 -360 Descending Chicago Center
11:20PM 41.6928 -86.7964 299° West 167 192 4,100 -240 Descending Chicago Center
11:21PM 41.7150 -86.8492 299° West 165 190 4,000 -60 Descending Chicago Center
11:22PM 41.7350 -86.8994 298° West 158 182 4,000  Level Chicago Center
11:23PM 41.7553 -86.9503 298° West 155 178 4,000  Level Chicago Center
11:24PM 41.7764 -87.0008 299° West 156 180 4,000  Level Chicago Center
11:25PM 41.8006 -87.0633 297° West 158 182 4,000  Level Chicago Center
11:26PM 41.8208 -87.1142 298° West 156 180 4,100  Climbing Chicago Center
11:27PM 41.8414 -87.1653 298° West 156 180 4,000 -60 Descending Chicago Center
11:28PM 41.8614 -87.2167 298° West 157 181 4,000 -300 Level Chicago Center
11:29PM 41.8953 -87.2600 316° Northwest 166 191 3,500 -480 Descending Chicago Center
11:30PM 41.9300 -87.3053 316° Northwest 174 200 3,100 -300 Descending Chicago Center
11:31PM 41.9611 -87.3522 312° West 173 199 3,000 -300 Descending Chicago Center
11:32PM 41.9881 -87.4025 306° West 170 196 2,600 -360 Descending Chicago Center
11:33PM 42.0194 -87.4583 307° West 165 190 2,300 -420 Descending Chicago Center
11:34PM 42.0403 -87.5058 301° West 157 181 1,800 -300 Descending Chicago Center
11:35PM 42.0500 -87.5500 287° West 149 171 1,800 -180 Level Chicago TRACON
11:36PM 42.0500 -87.6000 270° West 149 171 1,600 -60 Descending Chicago TRACON
11:37PM 42.0667 -87.6500 294° West 142 163 1,700 -60 Climbing Chicago TRACON
11:39PM 42.0936 -87.7725 287° West 145 167 1,400 -120 Descending Chicago Center
11:40PM 42.1014 -87.8219 282° West 146 168 1,400  Level Chicago Center
11:41PM 42.1053 -87.8714 276° West 144 166 1,500 60 Climbing Chicago Center